sensor_id;sensor_type;location;lat;lon;timestamp;P1;durP1;ratioP1;P2;durP2;ratioP2
57225;SDS011;43082;43.568;22.256;2023-04-05T00:00:38;12.95;;;7.60;;
57225;SDS011;43082;43.568;22.256;2023-04-05T00:03:03;13.52;;;7.60;;
57225;SDS011;43082;43.568;22.256;2023-04-05T00:05:29;10.35;;;5.90;;
57225;SDS011;43082;43.568;22.256;2023-04-05T00:07:59;11.52;;;6.53;;
57225;SDS011;43082;43.568;22.256;2023-04-05T00:10:29;9.60;;;5.20;;
57225;SDS011;43082;43.568;22.256;2023-04-05T00:12:55;9.82;;;4.63;;
57225;SDS011;43082;43.568;22.256;2023-04-05T00:15:23;8.95;;;4.88;;
57225;SDS011;43082;43.568;22.256;2023-04-05T00:17:49;11.38;;;6.38;;
57225;SDS011;43082;43.568;22.256;2023-04-05T00:20:15;10.75;;;6.28;;
57225;SDS011;43082;43.568;22.256;2023-04-05T00:22:40;10.88;;;6.25;;
57225;SDS011;43082;43.568;22.256;2023-04-05T00:25:10;9.90;;;5.88;;
57225;SDS011;43082;43.568;22.256;2023-04-05T00:27:36;9.75;;;5.57;;
57225;SDS011;43082;43.568;22.256;2023-04-05T00:30:01;12.38;;;6.72;;
57225;SDS011;43082;43.568;22.256;2023-04-05T00:32:28;10.38;;;5.72;;
57225;SDS011;43082;43.568;22.256;2023-04-05T00:34:53;10.75;;;5.82;;
57225;SDS011;43082;43.568;22.256;2023-04-05T00:37:18;7.45;;;3.70;;
57225;SDS011;43082;43.568;22.256;2023-04-05T00:39:45;7.30;;;4.10;;
57225;SDS011;43082;43.568;22.256;2023-04-05T00:42:11;11.05;;;5.90;;
57225;SDS011;43082;43.568;22.256;2023-04-05T00:44:36;10.13;;;5.20;;
57225;SDS011;43082;43.568;22.256;2023-04-05T00:47:05;8.38;;;4.57;;
57225;SDS011;43082;43.568;22.256;2023-04-05T00:49:32;7.00;;;3.50;;
57225;SDS011;43082;43.568;22.256;2023-04-05T00:51:58;6.70;;;3.55;;
57225;SDS011;43082;43.568;22.256;2023-04-05T00:54:24;7.70;;;3.92;;
57225;SDS011;43082;43.568;22.256;2023-04-05T00:56:52;6.95;;;3.38;;
57225;SDS011;43082;43.568;22.256;2023-04-05T00:59:19;13.25;;;8.25;;
57225;SDS011;43082;43.568;22.256;2023-04-05T01:01:45;7.22;;;3.70;;
57225;SDS011;43082;43.568;22.256;2023-04-05T01:04:19;9.05;;;4.90;;
57225;SDS011;43082;43.568;22.256;2023-04-05T01:12:03;9.10;;;4.72;;
57225;SDS011;43082;43.568;22.256;2023-04-05T01:17:29;8.23;;;3.97;;
57225;SDS011;43082;43.568;22.256;2023-04-05T01:20:00;9.50;;;4.70;;
57225;SDS011;43082;43.568;22.256;2023-04-05T01:30:48;9.30;;;4.78;;
57225;SDS011;43082;43.568;22.256;2023-04-05T01:36:23;12.05;;;6.95;;
57225;SDS011;43082;43.568;22.256;2023-04-05T01:38:55;9.70;;;4.60;;
57225;SDS011;43082;43.568;22.256;2023-04-05T01:41:22;12.23;;;6.38;;
57225;SDS011;43082;43.568;22.256;2023-04-05T01:43:47;10.73;;;5.43;;
57225;SDS011;43082;43.568;22.256;2023-04-05T01:46:13;12.75;;;6.47;;
57225;SDS011;43082;43.568;22.256;2023-04-05T01:48:38;11.85;;;6.18;;
57225;SDS011;43082;43.568;22.256;2023-04-05T01:51:03;12.07;;;6.22;;
57225;SDS011;43082;43.568;22.256;2023-04-05T01:53:29;17.13;;;9.80;;
57225;SDS011;43082;43.568;22.256;2023-04-05T01:55:58;14.10;;;7.10;;
57225;SDS011;43082;43.568;22.256;2023-04-05T01:58:25;8.65;;;4.03;;
57225;SDS011;43082;43.568;22.256;2023-04-05T02:00:52;7.57;;;3.80;;
57225;SDS011;43082;43.568;22.256;2023-04-05T02:03:21;8.75;;;3.70;;
57225;SDS011;43082;43.568;22.256;2023-04-05T02:05:47;5.22;;;2.10;;
57225;SDS011;43082;43.568;22.256;2023-04-05T02:08:13;7.20;;;3.45;;
57225;SDS011;43082;43.568;22.256;2023-04-05T02:10:38;12.50;;;5.38;;
57225;SDS011;43082;43.568;22.256;2023-04-05T02:13:04;12.95;;;6.60;;
57225;SDS011;43082;43.568;22.256;2023-04-05T02:15:30;8.32;;;4.15;;
57225;SDS011;43082;43.568;22.256;2023-04-05T02:17:58;9.02;;;4.40;;
57225;SDS011;43082;43.568;22.256;2023-04-05T02:20:26;9.23;;;3.90;;
57225;SDS011;43082;43.568;22.256;2023-04-05T02:22:52;8.43;;;4.35;;
57225;SDS011;43082;43.568;22.256;2023-04-05T02:25:18;10.25;;;5.43;;
57225;SDS011;43082;43.568;22.256;2023-04-05T02:27:43;9.20;;;4.90;;
57225;SDS011;43082;43.568;22.256;2023-04-05T02:30:09;8.80;;;4.90;;
57225;SDS011;43082;43.568;22.256;2023-04-05T02:32:37;8.77;;;4.55;;
57225;SDS011;43082;43.568;22.256;2023-04-05T02:35:03;8.52;;;4.13;;
57225;SDS011;43082;43.568;22.256;2023-04-05T02:37:29;6.07;;;2.67;;
57225;SDS011;43082;43.568;22.256;2023-04-05T02:39:54;7.35;;;3.58;;
57225;SDS011;43082;43.568;22.256;2023-04-05T02:42:20;6.15;;;2.90;;
57225;SDS011;43082;43.568;22.256;2023-04-05T02:44:45;7.90;;;4.25;;
57225;SDS011;43082;43.568;22.256;2023-04-05T02:47:11;7.85;;;3.50;;
57225;SDS011;43082;43.568;22.256;2023-04-05T02:49:36;6.65;;;3.10;;
57225;SDS011;43082;43.568;22.256;2023-04-05T02:52:01;8.85;;;3.33;;
57225;SDS011;43082;43.568;22.256;2023-04-05T02:54:27;16.23;;;10.63;;
57225;SDS011;43082;43.568;22.256;2023-04-05T02:56:52;6.68;;;2.70;;
57225;SDS011;43082;43.568;22.256;2023-04-05T02:59:18;7.75;;;3.80;;
57225;SDS011;43082;43.568;22.256;2023-04-05T03:01:44;6.90;;;2.92;;
57225;SDS011;43082;43.568;22.256;2023-04-05T03:04:10;4.93;;;2.22;;
57225;SDS011;43082;43.568;22.256;2023-04-05T03:06:38;4.75;;;1.85;;
57225;SDS011;43082;43.568;22.256;2023-04-05T03:09:03;5.60;;;2.33;;
57225;SDS011;43082;43.568;22.256;2023-04-05T03:11:29;4.47;;;1.75;;
57225;SDS011;43082;43.568;22.256;2023-04-05T03:13:55;7.18;;;2.50;;
57225;SDS011;43082;43.568;22.256;2023-04-05T03:16:20;5.20;;;2.40;;
57225;SDS011;43082;43.568;22.256;2023-04-05T03:18:47;7.68;;;4.10;;
57225;SDS011;43082;43.568;22.256;2023-04-05T03:21:13;9.35;;;5.40;;
57225;SDS011;43082;43.568;22.256;2023-04-05T03:23:41;10.93;;;6.30;;
57225;SDS011;43082;43.568;22.256;2023-04-05T03:26:07;8.10;;;4.18;;
57225;SDS011;43082;43.568;22.256;2023-04-05T03:28:34;7.07;;;3.67;;
57225;SDS011;43082;43.568;22.256;2023-04-05T03:30:59;7.97;;;3.88;;
57225;SDS011;43082;43.568;22.256;2023-04-05T03:33:25;9.32;;;5.13;;
57225;SDS011;43082;43.568;22.256;2023-04-05T03:35:50;8.85;;;4.95;;
57225;SDS011;43082;43.568;22.256;2023-04-05T03:38:16;7.55;;;3.20;;
57225;SDS011;43082;43.568;22.256;2023-04-05T03:40:41;7.70;;;3.80;;
57225;SDS011;43082;43.568;22.256;2023-04-05T03:43:07;8.98;;;4.68;;
57225;SDS011;43082;43.568;22.256;2023-04-05T03:45:32;7.93;;;3.90;;
57225;SDS011;43082;43.568;22.256;2023-04-05T03:47:58;10.45;;;5.68;;
57225;SDS011;43082;43.568;22.256;2023-04-05T03:50:24;8.80;;;4.65;;
57225;SDS011;43082;43.568;22.256;2023-04-05T03:52:50;10.15;;;5.20;;
57225;SDS011;43082;43.568;22.256;2023-04-05T03:55:16;11.43;;;6.20;;
57225;SDS011;43082;43.568;22.256;2023-04-05T03:57:42;10.13;;;5.20;;
57225;SDS011;43082;43.568;22.256;2023-04-05T04:00:07;11.85;;;5.88;;
57225;SDS011;43082;43.568;22.256;2023-04-05T04:02:41;8.98;;;3.95;;
57225;SDS011;43082;43.568;22.256;2023-04-05T04:05:10;7.15;;;3.53;;
57225;SDS011;43082;43.568;22.256;2023-04-05T04:07:36;10.50;;;5.28;;
57225;SDS011;43082;43.568;22.256;2023-04-05T04:10:05;11.10;;;6.82;;
57225;SDS011;43082;43.568;22.256;2023-04-05T04:12:30;10.77;;;5.88;;
57225;SDS011;43082;43.568;22.256;2023-04-05T04:14:56;14.48;;;7.32;;
57225;SDS011;43082;43.568;22.256;2023-04-05T04:17:31;11.25;;;6.00;;
57225;SDS011;43082;43.568;22.256;2023-04-05T04:19:58;29.30;;;19.58;;
57225;SDS011;43082;43.568;22.256;2023-04-05T04:22:24;21.48;;;12.55;;
57225;SDS011;43082;43.568;22.256;2023-04-05T04:25:02;25.40;;;15.98;;
57225;SDS011;43082;43.568;22.256;2023-04-05T04:27:39;18.80;;;11.52;;
57225;SDS011;43082;43.568;22.256;2023-04-05T04:30:07;13.95;;;8.25;;
57225;SDS011;43082;43.568;22.256;2023-04-05T04:32:35;16.08;;;10.23;;
57225;SDS011;43082;43.568;22.256;2023-04-05T04:35:22;17.75;;;10.90;;
57225;SDS011;43082;43.568;22.256;2023-04-05T04:38:09;19.27;;;10.60;;
57225;SDS011;43082;43.568;22.256;2023-04-05T04:43:06;14.20;;;8.50;;
57225;SDS011;43082;43.568;22.256;2023-04-05T04:45:34;25.40;;;13.35;;
57225;SDS011;43082;43.568;22.256;2023-04-05T04:48:02;26.05;;;14.13;;
57225;SDS011;43082;43.568;22.256;2023-04-05T04:50:29;23.08;;;13.88;;
57225;SDS011;43082;43.568;22.256;2023-04-05T04:52:59;21.65;;;11.15;;
57225;SDS011;43082;43.568;22.256;2023-04-05T04:55:26;10.25;;;6.03;;
57225;SDS011;43082;43.568;22.256;2023-04-05T04:57:54;12.20;;;6.70;;
57225;SDS011;43082;43.568;22.256;2023-04-05T05:00:21;11.38;;;6.75;;
57225;SDS011;43082;43.568;22.256;2023-04-05T05:02:47;16.67;;;8.52;;
57225;SDS011;43082;43.568;22.256;2023-04-05T05:05:14;14.60;;;8.25;;
57225;SDS011;43082;43.568;22.256;2023-04-05T05:07:40;14.82;;;8.00;;
57225;SDS011;43082;43.568;22.256;2023-04-05T05:10:06;15.43;;;9.05;;
57225;SDS011;43082;43.568;22.256;2023-04-05T05:12:32;13.65;;;7.53;;
57225;SDS011;43082;43.568;22.256;2023-04-05T05:14:58;11.48;;;5.85;;
57225;SDS011;43082;43.568;22.256;2023-04-05T05:17:23;12.48;;;7.03;;
57225;SDS011;43082;43.568;22.256;2023-04-05T05:19:49;19.77;;;11.50;;
57225;SDS011;43082;43.568;22.256;2023-04-05T05:22:15;16.15;;;9.15;;
57225;SDS011;43082;43.568;22.256;2023-04-05T05:24:40;12.52;;;8.02;;
57225;SDS011;43082;43.568;22.256;2023-04-05T05:27:06;18.13;;;10.82;;
57225;SDS011;43082;43.568;22.256;2023-04-05T05:29:32;24.60;;;16.88;;
57225;SDS011;43082;43.568;22.256;2023-04-05T05:31:57;19.08;;;13.52;;
57225;SDS011;43082;43.568;22.256;2023-04-05T05:34:23;18.63;;;12.35;;
57225;SDS011;43082;43.568;22.256;2023-04-05T05:36:48;15.00;;;10.90;;
57225;SDS011;43082;43.568;22.256;2023-04-05T05:39:15;10.45;;;7.15;;
57225;SDS011;43082;43.568;22.256;2023-04-05T05:41:41;17.05;;;12.57;;
57225;SDS011;43082;43.568;22.256;2023-04-05T05:44:06;20.20;;;14.35;;
57225;SDS011;43082;43.568;22.256;2023-04-05T05:46:31;16.65;;;11.63;;
57225;SDS011;43082;43.568;22.256;2023-04-05T05:48:57;17.92;;;12.13;;
57225;SDS011;43082;43.568;22.256;2023-04-05T05:51:22;19.23;;;13.32;;
57225;SDS011;43082;43.568;22.256;2023-04-05T05:53:48;24.67;;;17.02;;
57225;SDS011;43082;43.568;22.256;2023-04-05T05:56:13;18.95;;;11.98;;
57225;SDS011;43082;43.568;22.256;2023-04-05T05:58:38;25.02;;;14.93;;
57225;SDS011;43082;43.568;22.256;2023-04-05T06:01:07;25.85;;;16.35;;
57225;SDS011;43082;43.568;22.256;2023-04-05T06:03:32;19.67;;;14.68;;
57225;SDS011;43082;43.568;22.256;2023-04-05T06:05:58;16.17;;;9.95;;
57225;SDS011;43082;43.568;22.256;2023-04-05T06:08:24;10.55;;;6.50;;
57225;SDS011;43082;43.568;22.256;2023-04-05T06:10:51;10.07;;;6.50;;
57225;SDS011;43082;43.568;22.256;2023-04-05T06:13:17;6.53;;;3.30;;
57225;SDS011;43082;43.568;22.256;2023-04-05T06:15:42;7.47;;;3.10;;
57225;SDS011;43082;43.568;22.256;2023-04-05T06:18:08;17.05;;;11.63;;
57225;SDS011;43082;43.568;22.256;2023-04-05T06:20:33;14.45;;;9.57;;
57225;SDS011;43082;43.568;22.256;2023-04-05T06:23:04;29.60;;;20.88;;
57225;SDS011;43082;43.568;22.256;2023-04-05T06:25:29;12.38;;;7.35;;
57225;SDS011;43082;43.568;22.256;2023-04-05T06:27:55;15.63;;;8.40;;
57225;SDS011;43082;43.568;22.256;2023-04-05T06:30:20;11.50;;;6.85;;
57225;SDS011;43082;43.568;22.256;2023-04-05T06:32:46;12.35;;;7.50;;
57225;SDS011;43082;43.568;22.256;2023-04-05T06:35:12;9.38;;;5.72;;
57225;SDS011;43082;43.568;22.256;2023-04-05T06:37:38;11.90;;;6.72;;
57225;SDS011;43082;43.568;22.256;2023-04-05T06:40:03;10.98;;;6.90;;
57225;SDS011;43082;43.568;22.256;2023-04-05T06:42:29;9.68;;;5.68;;
57225;SDS011;43082;43.568;22.256;2023-04-05T06:44:55;16.10;;;11.32;;
57225;SDS011;43082;43.568;22.256;2023-04-05T06:47:20;9.60;;;5.50;;
57225;SDS011;43082;43.568;22.256;2023-04-05T06:49:45;9.93;;;4.57;;
57225;SDS011;43082;43.568;22.256;2023-04-05T06:52:11;9.02;;;5.00;;
57225;SDS011;43082;43.568;22.256;2023-04-05T06:54:36;12.95;;;7.80;;
57225;SDS011;43082;43.568;22.256;2023-04-05T06:57:03;13.50;;;8.88;;
57225;SDS011;43082;43.568;22.256;2023-04-05T06:59:28;10.05;;;5.63;;
57225;SDS011;43082;43.568;22.256;2023-04-05T07:01:54;18.50;;;12.63;;
57225;SDS011;43082;43.568;22.256;2023-04-05T07:04:20;13.40;;;9.07;;
57225;SDS011;43082;43.568;22.256;2023-04-05T07:06:46;11.13;;;6.50;;
57225;SDS011;43082;43.568;22.256;2023-04-05T07:09:11;11.73;;;7.65;;
57225;SDS011;43082;43.568;22.256;2023-04-05T07:11:37;13.20;;;8.75;;
57225;SDS011;43082;43.568;22.256;2023-04-05T07:14:04;8.75;;;4.65;;
57225;SDS011;43082;43.568;22.256;2023-04-05T07:16:29;10.15;;;4.22;;
57225;SDS011;43082;43.568;22.256;2023-04-05T07:18:55;6.28;;;3.10;;
57225;SDS011;43082;43.568;22.256;2023-04-05T07:21:21;9.55;;;5.00;;
57225;SDS011;43082;43.568;22.256;2023-04-05T07:23:47;12.30;;;8.23;;
57225;SDS011;43082;43.568;22.256;2023-04-05T07:26:12;8.90;;;5.20;;
57225;SDS011;43082;43.568;22.256;2023-04-05T07:28:38;10.85;;;6.43;;
57225;SDS011;43082;43.568;22.256;2023-04-05T07:31:04;6.80;;;3.58;;
57225;SDS011;43082;43.568;22.256;2023-04-05T07:33:30;10.52;;;6.30;;
57225;SDS011;43082;43.568;22.256;2023-04-05T07:35:56;12.43;;;6.78;;
57225;SDS011;43082;43.568;22.256;2023-04-05T07:38:22;14.07;;;8.38;;
57225;SDS011;43082;43.568;22.256;2023-04-05T07:40:48;12.77;;;7.20;;
57225;SDS011;43082;43.568;22.256;2023-04-05T07:43:14;10.18;;;5.97;;
57225;SDS011;43082;43.568;22.256;2023-04-05T07:45:40;13.88;;;7.88;;
57225;SDS011;43082;43.568;22.256;2023-04-05T07:48:05;11.48;;;6.18;;
57225;SDS011;43082;43.568;22.256;2023-04-05T07:50:30;15.40;;;8.93;;
57225;SDS011;43082;43.568;22.256;2023-04-05T07:52:56;15.10;;;9.50;;
57225;SDS011;43082;43.568;22.256;2023-04-05T07:55:21;16.02;;;9.40;;
57225;SDS011;43082;43.568;22.256;2023-04-05T07:57:47;24.33;;;6.88;;
57225;SDS011;43082;43.568;22.256;2023-04-05T08:00:12;15.75;;;10.82;;
57225;SDS011;43082;43.568;22.256;2023-04-05T08:02:38;14.20;;;6.97;;
57225;SDS011;43082;43.568;22.256;2023-04-05T08:05:04;13.95;;;7.13;;
57225;SDS011;43082;43.568;22.256;2023-04-05T08:07:30;10.15;;;5.85;;
57225;SDS011;43082;43.568;22.256;2023-04-05T08:09:55;13.48;;;8.52;;
57225;SDS011;43082;43.568;22.256;2023-04-05T08:12:23;14.52;;;8.88;;
57225;SDS011;43082;43.568;22.256;2023-04-05T08:14:50;7.88;;;4.40;;
57225;SDS011;43082;43.568;22.256;2023-04-05T08:17:15;9.68;;;4.05;;
57225;SDS011;43082;43.568;22.256;2023-04-05T08:19:41;9.90;;;5.63;;
57225;SDS011;43082;43.568;22.256;2023-04-05T08:22:07;13.95;;;8.88;;
57225;SDS011;43082;43.568;22.256;2023-04-05T08:24:32;13.73;;;8.77;;
57225;SDS011;43082;43.568;22.256;2023-04-05T08:26:58;9.65;;;6.40;;
57225;SDS011;43082;43.568;22.256;2023-04-05T08:29:23;9.98;;;5.88;;
57225;SDS011;43082;43.568;22.256;2023-04-05T08:31:49;15.50;;;8.18;;
57225;SDS011;43082;43.568;22.256;2023-04-05T08:34:14;10.15;;;6.60;;
57225;SDS011;43082;43.568;22.256;2023-04-05T08:36:39;13.00;;;8.70;;
57225;SDS011;43082;43.568;22.256;2023-04-05T08:39:05;11.57;;;6.80;;
57225;SDS011;43082;43.568;22.256;2023-04-05T08:41:39;11.27;;;6.50;;
57225;SDS011;43082;43.568;22.256;2023-04-05T08:44:06;11.57;;;6.90;;
57225;SDS011;43082;43.568;22.256;2023-04-05T08:46:33;9.35;;;5.43;;
57225;SDS011;43082;43.568;22.256;2023-04-05T08:49:01;8.48;;;4.40;;
57225;SDS011;43082;43.568;22.256;2023-04-05T08:51:29;9.10;;;5.50;;
57225;SDS011;43082;43.568;22.256;2023-04-05T08:53:55;8.25;;;4.15;;
57225;SDS011;43082;43.568;22.256;2023-04-05T08:56:23;11.35;;;7.00;;
57225;SDS011;43082;43.568;22.256;2023-04-05T08:59:11;7.35;;;3.78;;
57225;SDS011;43082;43.568;22.256;2023-04-05T09:01:36;7.15;;;3.55;;
57225;SDS011;43082;43.568;22.256;2023-04-05T09:04:10;10.02;;;4.18;;
57225;SDS011;43082;43.568;22.256;2023-04-05T09:06:38;7.78;;;3.28;;
57225;SDS011;43082;43.568;22.256;2023-04-05T09:09:07;6.75;;;3.28;;
57225;SDS011;43082;43.568;22.256;2023-04-05T09:11:33;8.52;;;4.53;;
57225;SDS011;43082;43.568;22.256;2023-04-05T09:14:01;8.68;;;4.80;;
57225;SDS011;43082;43.568;22.256;2023-04-05T09:16:28;6.32;;;3.33;;
57225;SDS011;43082;43.568;22.256;2023-04-05T09:18:54;7.07;;;3.95;;
57225;SDS011;43082;43.568;22.256;2023-04-05T09:21:20;7.40;;;3.85;;
57225;SDS011;43082;43.568;22.256;2023-04-05T09:23:51;6.88;;;3.70;;
57225;SDS011;43082;43.568;22.256;2023-04-05T09:26:18;7.88;;;4.40;;
57225;SDS011;43082;43.568;22.256;2023-04-05T09:28:45;9.85;;;5.00;;
57225;SDS011;43082;43.568;22.256;2023-04-05T09:34:01;6.97;;;3.88;;
57225;SDS011;43082;43.568;22.256;2023-04-05T09:36:27;8.23;;;3.88;;
57225;SDS011;43082;43.568;22.256;2023-04-05T09:38:53;7.25;;;4.20;;
57225;SDS011;43082;43.568;22.256;2023-04-05T09:41:28;7.40;;;4.20;;
57225;SDS011;43082;43.568;22.256;2023-04-05T09:43:53;6.95;;;3.70;;
57225;SDS011;43082;43.568;22.256;2023-04-05T09:46:32;7.68;;;3.10;;
57225;SDS011;43082;43.568;22.256;2023-04-05T09:49:02;7.25;;;3.90;;
57225;SDS011;43082;43.568;22.256;2023-04-05T09:51:31;7.57;;;4.03;;
57225;SDS011;43082;43.568;22.256;2023-04-05T09:54:05;8.15;;;4.95;;
57225;SDS011;43082;43.568;22.256;2023-04-05T09:56:35;9.45;;;5.47;;
57225;SDS011;43082;43.568;22.256;2023-04-05T09:59:05;12.18;;;6.30;;
57225;SDS011;43082;43.568;22.256;2023-04-05T10:01:33;12.60;;;7.00;;
57225;SDS011;43082;43.568;22.256;2023-04-05T10:03:59;10.32;;;5.40;;
57225;SDS011;43082;43.568;22.256;2023-04-05T10:06:37;10.68;;;5.40;;
57225;SDS011;43082;43.568;22.256;2023-04-05T10:09:07;11.57;;;6.93;;
57225;SDS011;43082;43.568;22.256;2023-04-05T10:11:34;17.30;;;8.82;;
57225;SDS011;43082;43.568;22.256;2023-04-05T10:14:01;10.07;;;5.47;;
57225;SDS011;43082;43.568;22.256;2023-04-05T10:16:37;13.88;;;7.93;;
57225;SDS011;43082;43.568;22.256;2023-04-05T10:19:08;10.55;;;5.85;;
57225;SDS011;43082;43.568;22.256;2023-04-05T10:21:40;12.95;;;7.60;;
57225;SDS011;43082;43.568;22.256;2023-04-05T10:27:11;13.45;;;7.97;;
57225;SDS011;43082;43.568;22.256;2023-04-05T10:35:33;12.40;;;6.90;;
57225;SDS011;43082;43.568;22.256;2023-04-05T10:40:35;17.05;;;8.77;;
57225;SDS011;43082;43.568;22.256;2023-04-05T10:43:02;11.70;;;7.85;;
57225;SDS011;43082;43.568;22.256;2023-04-05T10:45:28;14.30;;;9.10;;
57225;SDS011;43082;43.568;22.256;2023-04-05T10:47:57;16.40;;;10.90;;
57225;SDS011;43082;43.568;22.256;2023-04-05T10:50:24;17.60;;;10.18;;
57225;SDS011;43082;43.568;22.256;2023-04-05T10:52:50;20.52;;;13.38;;
57225;SDS011;43082;43.568;22.256;2023-04-05T10:55:17;19.35;;;13.18;;
57225;SDS011;43082;43.568;22.256;2023-04-05T10:57:43;15.45;;;9.88;;
57225;SDS011;43082;43.568;22.256;2023-04-05T11:00:09;14.38;;;10.18;;
57225;SDS011;43082;43.568;22.256;2023-04-05T11:02:36;16.20;;;11.23;;
57225;SDS011;43082;43.568;22.256;2023-04-05T11:05:02;16.00;;;10.88;;
57225;SDS011;43082;43.568;22.256;2023-04-05T11:07:41;13.68;;;8.20;;
57225;SDS011;43082;43.568;22.256;2023-04-05T11:10:12;11.45;;;7.75;;
57225;SDS011;43082;43.568;22.256;2023-04-05T11:23:06;14.68;;;9.68;;
57225;SDS011;43082;43.568;22.256;2023-04-05T11:25:32;16.45;;;10.00;;
57225;SDS011;43082;43.568;22.256;2023-04-05T11:28:02;14.60;;;9.68;;
57225;SDS011;43082;43.568;22.256;2023-04-05T11:36:02;12.85;;;8.98;;
57225;SDS011;43082;43.568;22.256;2023-04-05T11:38:28;13.00;;;10.10;;
57225;SDS011;43082;43.568;22.256;2023-04-05T11:41:26;11.68;;;8.15;;
57225;SDS011;43082;43.568;22.256;2023-04-05T11:43:45;16.73;;;11.85;;
57225;SDS011;43082;43.568;22.256;2023-04-05T11:46:12;18.13;;;11.20;;
57225;SDS011;43082;43.568;22.256;2023-04-05T11:48:39;16.83;;;11.52;;
57225;SDS011;43082;43.568;22.256;2023-04-05T11:51:06;12.52;;;9.38;;
57225;SDS011;43082;43.568;22.256;2023-04-05T11:53:37;11.13;;;7.97;;
57225;SDS011;43082;43.568;22.256;2023-04-05T11:56:06;12.02;;;8.68;;
57225;SDS011;43082;43.568;22.256;2023-04-05T11:58:34;15.18;;;11.32;;
57225;SDS011;43082;43.568;22.256;2023-04-05T12:01:00;16.30;;;9.90;;
57225;SDS011;43082;43.568;22.256;2023-04-05T12:03:27;18.15;;;12.38;;
57225;SDS011;43082;43.568;22.256;2023-04-05T12:05:56;14.45;;;10.15;;
57225;SDS011;43082;43.568;22.256;2023-04-05T12:08:23;14.35;;;10.82;;
57225;SDS011;43082;43.568;22.256;2023-04-05T12:10:55;16.33;;;12.25;;
57225;SDS011;43082;43.568;22.256;2023-04-05T12:13:27;14.15;;;10.15;;
57225;SDS011;43082;43.568;22.256;2023-04-05T12:15:53;16.02;;;11.20;;
57225;SDS011;43082;43.568;22.256;2023-04-05T12:18:21;17.83;;;10.48;;
57225;SDS011;43082;43.568;22.256;2023-04-05T12:20:49;23.65;;;14.30;;
57225;SDS011;43082;43.568;22.256;2023-04-05T12:23:15;13.85;;;10.02;;
57225;SDS011;43082;43.568;22.256;2023-04-05T12:25:44;16.35;;;11.43;;
57225;SDS011;43082;43.568;22.256;2023-04-05T12:28:10;19.20;;;14.05;;
57225;SDS011;43082;43.568;22.256;2023-04-05T12:30:36;15.88;;;9.35;;
57225;SDS011;43082;43.568;22.256;2023-04-05T12:33:15;15.75;;;9.60;;
57225;SDS011;43082;43.568;22.256;2023-04-05T12:36:04;13.50;;;8.95;;
57225;SDS011;43082;43.568;22.256;2023-04-05T12:38:30;12.90;;;8.60;;
57225;SDS011;43082;43.568;22.256;2023-04-05T12:40:59;16.70;;;11.20;;
57225;SDS011;43082;43.568;22.256;2023-04-05T12:43:25;15.75;;;10.68;;
57225;SDS011;43082;43.568;22.256;2023-04-05T12:45:53;16.30;;;10.68;;
57225;SDS011;43082;43.568;22.256;2023-04-05T12:48:20;18.27;;;10.65;;
57225;SDS011;43082;43.568;22.256;2023-04-05T12:50:48;12.77;;;8.73;;
57225;SDS011;43082;43.568;22.256;2023-04-05T12:53:20;19.42;;;11.98;;
57225;SDS011;43082;43.568;22.256;2023-04-05T12:55:53;16.52;;;11.38;;
57225;SDS011;43082;43.568;22.256;2023-04-05T12:58:19;13.68;;;10.00;;
57225;SDS011;43082;43.568;22.256;2023-04-05T13:00:46;12.88;;;7.32;;
57225;SDS011;43082;43.568;22.256;2023-04-05T13:03:15;15.40;;;11.02;;
57225;SDS011;43082;43.568;22.256;2023-04-05T13:05:42;39.70;;;24.85;;
57225;SDS011;43082;43.568;22.256;2023-04-05T13:08:07;15.30;;;10.45;;
57225;SDS011;43082;43.568;22.256;2023-04-05T13:10:33;17.17;;;11.65;;
57225;SDS011;43082;43.568;22.256;2023-04-05T13:12:58;17.65;;;11.93;;
57225;SDS011;43082;43.568;22.256;2023-04-05T13:15:23;13.77;;;9.57;;
57225;SDS011;43082;43.568;22.256;2023-04-05T13:17:49;14.55;;;10.52;;
57225;SDS011;43082;43.568;22.256;2023-04-05T13:20:16;12.90;;;9.20;;
57225;SDS011;43082;43.568;22.256;2023-04-05T13:22:42;22.27;;;11.13;;
57225;SDS011;43082;43.568;22.256;2023-04-05T13:25:08;17.73;;;13.40;;
57225;SDS011;43082;43.568;22.256;2023-04-05T13:27:33;21.58;;;14.30;;
57225;SDS011;43082;43.568;22.256;2023-04-05T13:29:59;16.77;;;11.70;;
57225;SDS011;43082;43.568;22.256;2023-04-05T13:32:24;14.50;;;9.85;;
57225;SDS011;43082;43.568;22.256;2023-04-05T13:34:50;17.17;;;13.38;;
57225;SDS011;43082;43.568;22.256;2023-04-05T13:37:15;18.92;;;12.30;;
57225;SDS011;43082;43.568;22.256;2023-04-05T13:39:41;13.20;;;9.00;;
57225;SDS011;43082;43.568;22.256;2023-04-05T13:42:06;14.85;;;9.48;;
57225;SDS011;43082;43.568;22.256;2023-04-05T13:44:31;12.98;;;8.40;;
57225;SDS011;43082;43.568;22.256;2023-04-05T13:46:57;16.30;;;11.45;;
57225;SDS011;43082;43.568;22.256;2023-04-05T13:49:22;15.20;;;10.05;;
57225;SDS011;43082;43.568;22.256;2023-04-05T13:51:48;14.35;;;10.43;;
57225;SDS011;43082;43.568;22.256;2023-04-05T13:54:13;14.13;;;9.98;;
57225;SDS011;43082;43.568;22.256;2023-04-05T13:56:40;23.70;;;18.05;;
57225;SDS011;43082;43.568;22.256;2023-04-05T13:59:05;16.42;;;12.00;;
57225;SDS011;43082;43.568;22.256;2023-04-05T14:01:34;17.83;;;12.60;;
57225;SDS011;43082;43.568;22.256;2023-04-05T14:04:00;17.70;;;11.60;;
57225;SDS011;43082;43.568;22.256;2023-04-05T14:06:25;17.75;;;11.68;;
57225;SDS011;43082;43.568;22.256;2023-04-05T14:08:51;20.88;;;14.65;;
57225;SDS011;43082;43.568;22.256;2023-04-05T14:11:19;18.75;;;11.88;;
57225;SDS011;43082;43.568;22.256;2023-04-05T14:13:46;17.67;;;12.02;;
57225;SDS011;43082;43.568;22.256;2023-04-05T14:16:12;16.88;;;11.55;;
57225;SDS011;43082;43.568;22.256;2023-04-05T14:18:37;15.93;;;10.18;;
57225;SDS011;43082;43.568;22.256;2023-04-05T14:21:03;16.13;;;12.15;;
57225;SDS011;43082;43.568;22.256;2023-04-05T14:23:28;16.08;;;11.52;;
57225;SDS011;43082;43.568;22.256;2023-04-05T14:25:53;13.82;;;10.23;;
57225;SDS011;43082;43.568;22.256;2023-04-05T14:28:19;16.52;;;11.15;;
57225;SDS011;43082;43.568;22.256;2023-04-05T14:30:44;12.77;;;9.30;;
57225;SDS011;43082;43.568;22.256;2023-04-05T14:33:10;13.00;;;9.55;;
57225;SDS011;43082;43.568;22.256;2023-04-05T14:35:38;13.77;;;9.57;;
57225;SDS011;43082;43.568;22.256;2023-04-05T14:38:04;15.75;;;10.43;;
57225;SDS011;43082;43.568;22.256;2023-04-05T14:40:29;13.75;;;9.57;;
57225;SDS011;43082;43.568;22.256;2023-04-05T14:42:55;17.77;;;12.82;;
57225;SDS011;43082;43.568;22.256;2023-04-05T14:45:20;10.40;;;7.85;;
57225;SDS011;43082;43.568;22.256;2023-04-05T14:47:47;19.48;;;12.13;;
57225;SDS011;43082;43.568;22.256;2023-04-05T14:50:12;13.82;;;9.63;;
57225;SDS011;43082;43.568;22.256;2023-04-05T14:52:38;13.27;;;8.82;;
57225;SDS011;43082;43.568;22.256;2023-04-05T14:55:04;17.02;;;9.82;;
57225;SDS011;43082;43.568;22.256;2023-04-05T14:57:29;23.73;;;15.57;;
57225;SDS011;43082;43.568;22.256;2023-04-05T14:59:55;19.48;;;12.40;;
57225;SDS011;43082;43.568;22.256;2023-04-05T15:02:20;13.35;;;9.07;;
57225;SDS011;43082;43.568;22.256;2023-04-05T15:04:45;17.13;;;12.52;;
57225;SDS011;43082;43.568;22.256;2023-04-05T15:07:11;16.30;;;11.25;;
57225;SDS011;43082;43.568;22.256;2023-04-05T15:09:37;19.58;;;14.60;;
57225;SDS011;43082;43.568;22.256;2023-04-05T15:12:02;20.73;;;13.38;;